Terminal Aerodrome Forecast
Issued by NWS

Home | Current Version | Previous Version | Text Only | Print | Product List | Glossary On
Versions: 1 2 3 4 5 6 7 8 9 10 11 12 13 14
000
FTUS45 KABQ 251741
TAFFMN
TAF
KFMN 251741Z 2518/2618 29012G20KT P6SM BKN040 OVC050
     FM252100 30023G32KT P6SM VCSH SCT030 OVC040
     FM260600 29011KT P6SM FEW040
     FM261400 29009KT P6SM SCT030=

USA.gov is the U.S. government's official web portal to all federal, state and local government web resources and services.